sensor_id;sensor_type;location;lat;lon;timestamp;P1;durP1;ratioP1;P2;durP2;ratioP2
20830;SDS011;10576;53.556;9.868;2023-03-13T00:00:19;26.73;;;7.15;;
20830;SDS011;10576;53.556;9.868;2023-03-13T00:02:46;30.65;;;7.90;;
20830;SDS011;10576;53.556;9.868;2023-03-13T00:05:14;24.50;;;6.82;;
20830;SDS011;10576;53.556;9.868;2023-03-13T00:07:40;23.73;;;7.30;;
20830;SDS011;10576;53.556;9.868;2023-03-13T00:10:06;28.33;;;7.53;;
20830;SDS011;10576;53.556;9.868;2023-03-13T00:12:32;29.55;;;7.57;;
20830;SDS011;10576;53.556;9.868;2023-03-13T00:14:58;24.90;;;6.60;;
20830;SDS011;10576;53.556;9.868;2023-03-13T00:17:24;26.87;;;7.03;;
20830;SDS011;10576;53.556;9.868;2023-03-13T00:19:49;29.40;;;7.07;;
20830;SDS011;10576;53.556;9.868;2023-03-13T00:22:15;22.90;;;7.00;;
20830;SDS011;10576;53.556;9.868;2023-03-13T00:24:41;22.33;;;6.43;;
20830;SDS011;10576;53.556;9.868;2023-03-13T00:27:07;27.58;;;6.78;;
20830;SDS011;10576;53.556;9.868;2023-03-13T00:29:33;23.13;;;6.72;;
20830;SDS011;10576;53.556;9.868;2023-03-13T00:31:59;23.65;;;6.90;;
20830;SDS011;10576;53.556;9.868;2023-03-13T00:34:25;25.90;;;6.83;;
20830;SDS011;10576;53.556;9.868;2023-03-13T00:36:51;25.13;;;7.35;;
20830;SDS011;10576;53.556;9.868;2023-03-13T00:39:18;29.98;;;7.45;;
20830;SDS011;10576;53.556;9.868;2023-03-13T00:41:45;26.58;;;7.15;;
20830;SDS011;10576;53.556;9.868;2023-03-13T00:44:10;28.63;;;7.40;;
20830;SDS011;10576;53.556;9.868;2023-03-13T00:46:37;24.83;;;7.20;;
20830;SDS011;10576;53.556;9.868;2023-03-13T00:49:03;24.63;;;6.80;;
20830;SDS011;10576;53.556;9.868;2023-03-13T00:51:29;28.87;;;7.57;;
20830;SDS011;10576;53.556;9.868;2023-03-13T00:53:55;23.52;;;7.05;;
20830;SDS011;10576;53.556;9.868;2023-03-13T00:56:24;29.70;;;7.22;;
20830;SDS011;10576;53.556;9.868;2023-03-13T00:58:50;31.38;;;7.50;;
20830;SDS011;10576;53.556;9.868;2023-03-13T01:01:21;28.17;;;7.23;;
20830;SDS011;10576;53.556;9.868;2023-03-13T01:03:49;25.60;;;7.10;;
20830;SDS011;10576;53.556;9.868;2023-03-13T01:06:24;28.33;;;7.68;;
20830;SDS011;10576;53.556;9.868;2023-03-13T01:08:52;29.55;;;7.43;;
20830;SDS011;10576;53.556;9.868;2023-03-13T01:11:20;26.30;;;7.30;;
20830;SDS011;10576;53.556;9.868;2023-03-13T01:13:46;30.75;;;7.70;;
20830;SDS011;10576;53.556;9.868;2023-03-13T01:16:14;30.83;;;7.63;;
20830;SDS011;10576;53.556;9.868;2023-03-13T01:18:43;29.45;;;7.85;;
20830;SDS011;10576;53.556;9.868;2023-03-13T01:21:10;26.13;;;7.25;;
20830;SDS011;10576;53.556;9.868;2023-03-13T01:23:37;27.92;;;7.43;;
20830;SDS011;10576;53.556;9.868;2023-03-13T01:26:04;34.55;;;7.63;;
20830;SDS011;10576;53.556;9.868;2023-03-13T01:28:31;31.45;;;7.60;;
20830;SDS011;10576;53.556;9.868;2023-03-13T01:30:57;33.93;;;8.27;;
20830;SDS011;10576;53.556;9.868;2023-03-13T01:33:23;30.60;;;8.00;;
20830;SDS011;10576;53.556;9.868;2023-03-13T01:35:49;31.50;;;8.00;;
20830;SDS011;10576;53.556;9.868;2023-03-13T01:38:15;28.08;;;8.07;;
20830;SDS011;10576;53.556;9.868;2023-03-13T01:43:14;25.35;;;7.82;;
20830;SDS011;10576;53.556;9.868;2023-03-13T01:46:00;27.98;;;7.38;;
20830;SDS011;10576;53.556;9.868;2023-03-13T01:50:58;27.42;;;8.07;;
20830;SDS011;10576;53.556;9.868;2023-03-13T01:53:27;28.30;;;7.78;;
20830;SDS011;10576;53.556;9.868;2023-03-13T01:55:55;33.88;;;8.50;;
20830;SDS011;10576;53.556;9.868;2023-03-13T01:58:23;29.40;;;8.35;;
20830;SDS011;10576;53.556;9.868;2023-03-13T02:00:51;32.83;;;8.13;;
20830;SDS011;10576;53.556;9.868;2023-03-13T02:03:18;30.05;;;8.30;;
20830;SDS011;10576;53.556;9.868;2023-03-13T02:05:45;30.67;;;7.50;;
20830;SDS011;10576;53.556;9.868;2023-03-13T02:14:16;27.58;;;8.02;;
20830;SDS011;10576;53.556;9.868;2023-03-13T02:16:44;29.20;;;7.53;;
20830;SDS011;10576;53.556;9.868;2023-03-13T02:19:23;28.48;;;7.50;;
20830;SDS011;10576;53.556;9.868;2023-03-13T02:22:37;28.35;;;7.65;;
20830;SDS011;10576;53.556;9.868;2023-03-13T02:24:44;24.05;;;7.10;;
20830;SDS011;10576;53.556;9.868;2023-03-13T02:27:20;25.67;;;7.13;;
20830;SDS011;10576;53.556;9.868;2023-03-13T02:29:46;25.88;;;7.22;;
20830;SDS011;10576;53.556;9.868;2023-03-13T02:32:13;30.88;;;7.60;;
20830;SDS011;10576;53.556;9.868;2023-03-13T02:34:40;29.77;;;8.00;;
20830;SDS011;10576;53.556;9.868;2023-03-13T02:37:07;26.65;;;7.70;;
20830;SDS011;10576;53.556;9.868;2023-03-13T02:39:38;31.02;;;7.63;;
20830;SDS011;10576;53.556;9.868;2023-03-13T02:42:07;22.25;;;6.45;;
20830;SDS011;10576;53.556;9.868;2023-03-13T02:44:39;26.73;;;7.75;;
20830;SDS011;10576;53.556;9.868;2023-03-13T02:47:06;31.73;;;7.30;;
20830;SDS011;10576;53.556;9.868;2023-03-13T02:49:33;33.00;;;7.70;;
20830;SDS011;10576;53.556;9.868;2023-03-13T02:52:03;27.67;;;6.93;;
20830;SDS011;10576;53.556;9.868;2023-03-13T02:54:42;31.27;;;7.00;;
20830;SDS011;10576;53.556;9.868;2023-03-13T02:57:11;24.60;;;6.95;;
20830;SDS011;10576;53.556;9.868;2023-03-13T02:59:37;28.77;;;6.57;;
20830;SDS011;10576;53.556;9.868;2023-03-13T03:02:02;30.42;;;7.50;;
20830;SDS011;10576;53.556;9.868;2023-03-13T03:04:28;28.60;;;6.70;;
20830;SDS011;10576;53.556;9.868;2023-03-13T03:06:54;31.48;;;6.95;;
20830;SDS011;10576;53.556;9.868;2023-03-13T03:09:20;28.15;;;6.93;;
20830;SDS011;10576;53.556;9.868;2023-03-13T03:11:46;32.03;;;6.40;;
20830;SDS011;10576;53.556;9.868;2023-03-13T03:14:12;28.05;;;7.05;;
20830;SDS011;10576;53.556;9.868;2023-03-13T03:16:38;28.35;;;6.45;;
20830;SDS011;10576;53.556;9.868;2023-03-13T03:19:04;26.98;;;6.82;;
20830;SDS011;10576;53.556;9.868;2023-03-13T03:21:33;25.55;;;6.55;;
20830;SDS011;10576;53.556;9.868;2023-03-13T03:23:59;26.42;;;6.38;;
20830;SDS011;10576;53.556;9.868;2023-03-13T03:26:25;28.80;;;6.78;;
20830;SDS011;10576;53.556;9.868;2023-03-13T03:28:51;25.40;;;6.40;;
20830;SDS011;10576;53.556;9.868;2023-03-13T03:31:17;22.65;;;6.00;;
20830;SDS011;10576;53.556;9.868;2023-03-13T03:33:43;25.90;;;5.83;;
20830;SDS011;10576;53.556;9.868;2023-03-13T03:36:10;23.50;;;6.13;;
20830;SDS011;10576;53.556;9.868;2023-03-13T03:38:38;20.27;;;6.27;;
20830;SDS011;10576;53.556;9.868;2023-03-13T03:41:08;24.20;;;5.90;;
20830;SDS011;10576;53.556;9.868;2023-03-13T03:43:35;24.52;;;5.75;;
20830;SDS011;10576;53.556;9.868;2023-03-13T03:46:01;26.73;;;6.78;;
20830;SDS011;10576;53.556;9.868;2023-03-13T03:48:27;19.50;;;5.45;;
20830;SDS011;10576;53.556;9.868;2023-03-13T03:50:53;32.85;;;6.28;;
20830;SDS011;10576;53.556;9.868;2023-03-13T03:53:18;26.80;;;5.80;;
20830;SDS011;10576;53.556;9.868;2023-03-13T03:55:45;28.33;;;5.85;;
20830;SDS011;10576;53.556;9.868;2023-03-13T03:58:11;27.92;;;6.57;;
20830;SDS011;10576;53.556;9.868;2023-03-13T04:00:36;27.73;;;6.20;;
20830;SDS011;10576;53.556;9.868;2023-03-13T04:03:02;30.98;;;5.72;;
20830;SDS011;10576;53.556;9.868;2023-03-13T04:05:28;23.67;;;5.55;;
20830;SDS011;10576;53.556;9.868;2023-03-13T04:07:54;25.80;;;6.43;;
20830;SDS011;10576;53.556;9.868;2023-03-13T04:10:20;24.93;;;6.10;;
20830;SDS011;10576;53.556;9.868;2023-03-13T04:12:45;24.47;;;6.27;;
20830;SDS011;10576;53.556;9.868;2023-03-13T04:15:11;20.52;;;5.65;;
20830;SDS011;10576;53.556;9.868;2023-03-13T04:17:37;25.08;;;5.47;;
20830;SDS011;10576;53.556;9.868;2023-03-13T04:20:03;18.97;;;5.40;;
20830;SDS011;10576;53.556;9.868;2023-03-13T04:22:30;23.98;;;6.05;;
20830;SDS011;10576;53.556;9.868;2023-03-13T04:24:56;23.70;;;5.73;;
20830;SDS011;10576;53.556;9.868;2023-03-13T04:27:21;32.63;;;5.73;;
20830;SDS011;10576;53.556;9.868;2023-03-13T04:29:47;24.27;;;5.50;;
20830;SDS011;10576;53.556;9.868;2023-03-13T04:32:12;19.50;;;5.40;;
20830;SDS011;10576;53.556;9.868;2023-03-13T04:34:38;24.30;;;5.57;;
20830;SDS011;10576;53.556;9.868;2023-03-13T04:37:04;20.77;;;5.57;;
20830;SDS011;10576;53.556;9.868;2023-03-13T04:39:29;24.55;;;6.20;;
20830;SDS011;10576;53.556;9.868;2023-03-13T04:41:55;23.38;;;5.57;;
20830;SDS011;10576;53.556;9.868;2023-03-13T04:44:21;22.60;;;5.25;;
20830;SDS011;10576;53.556;9.868;2023-03-13T04:46:47;28.10;;;5.63;;
20830;SDS011;10576;53.556;9.868;2023-03-13T04:49:14;17.05;;;5.47;;
20830;SDS011;10576;53.556;9.868;2023-03-13T04:51:41;24.70;;;5.35;;
20830;SDS011;10576;53.556;9.868;2023-03-13T04:54:07;23.73;;;5.63;;
20830;SDS011;10576;53.556;9.868;2023-03-13T04:56:33;17.27;;;5.17;;
20830;SDS011;10576;53.556;9.868;2023-03-13T04:58:59;21.20;;;5.22;;
20830;SDS011;10576;53.556;9.868;2023-03-13T05:01:24;22.77;;;5.78;;
20830;SDS011;10576;53.556;9.868;2023-03-13T05:03:50;19.40;;;5.18;;
20830;SDS011;10576;53.556;9.868;2023-03-13T05:06:16;19.95;;;5.03;;
20830;SDS011;10576;53.556;9.868;2023-03-13T05:08:41;20.33;;;5.20;;
20830;SDS011;10576;53.556;9.868;2023-03-13T05:11:07;21.53;;;5.50;;
20830;SDS011;10576;53.556;9.868;2023-03-13T05:13:33;19.33;;;4.63;;
20830;SDS011;10576;53.556;9.868;2023-03-13T05:15:59;18.40;;;5.10;;
20830;SDS011;10576;53.556;9.868;2023-03-13T05:18:25;20.73;;;5.03;;
20830;SDS011;10576;53.556;9.868;2023-03-13T05:20:51;21.13;;;4.93;;
20830;SDS011;10576;53.556;9.868;2023-03-13T05:23:16;16.73;;;4.65;;
20830;SDS011;10576;53.556;9.868;2023-03-13T05:25:42;16.13;;;4.40;;
20830;SDS011;10576;53.556;9.868;2023-03-13T05:28:08;16.93;;;4.60;;
20830;SDS011;10576;53.556;9.868;2023-03-13T05:30:34;12.98;;;4.15;;
20830;SDS011;10576;53.556;9.868;2023-03-13T05:32:59;12.02;;;4.00;;
20830;SDS011;10576;53.556;9.868;2023-03-13T05:35:25;15.40;;;4.43;;
20830;SDS011;10576;53.556;9.868;2023-03-13T05:37:51;14.05;;;4.03;;
20830;SDS011;10576;53.556;9.868;2023-03-13T05:40:16;9.87;;;3.10;;
20830;SDS011;10576;53.556;9.868;2023-03-13T05:42:43;10.47;;;3.50;;
20830;SDS011;10576;53.556;9.868;2023-03-13T05:45:09;10.27;;;3.47;;
20830;SDS011;10576;53.556;9.868;2023-03-13T05:47:36;9.73;;;3.33;;
20830;SDS011;10576;53.556;9.868;2023-03-13T05:50:03;10.23;;;3.20;;
20830;SDS011;10576;53.556;9.868;2023-03-13T05:52:30;8.55;;;2.78;;
20830;SDS011;10576;53.556;9.868;2023-03-13T05:54:56;8.18;;;2.85;;
20830;SDS011;10576;53.556;9.868;2023-03-13T05:57:22;7.88;;;2.72;;
20830;SDS011;10576;53.556;9.868;2023-03-13T05:59:48;8.73;;;3.00;;
20830;SDS011;10576;53.556;9.868;2023-03-13T06:02:13;8.60;;;2.72;;
20830;SDS011;10576;53.556;9.868;2023-03-13T06:04:39;7.50;;;2.80;;
20830;SDS011;10576;53.556;9.868;2023-03-13T06:07:05;8.60;;;2.73;;
20830;SDS011;10576;53.556;9.868;2023-03-13T06:09:30;6.97;;;2.83;;
20830;SDS011;10576;53.556;9.868;2023-03-13T06:11:56;6.67;;;2.53;;
20830;SDS011;10576;53.556;9.868;2023-03-13T06:14:22;5.77;;;2.57;;
20830;SDS011;10576;53.556;9.868;2023-03-13T06:16:47;7.00;;;2.50;;
20830;SDS011;10576;53.556;9.868;2023-03-13T06:19:13;7.90;;;2.90;;
20830;SDS011;10576;53.556;9.868;2023-03-13T06:21:39;5.78;;;2.67;;
20830;SDS011;10576;53.556;9.868;2023-03-13T06:24:04;7.90;;;2.77;;
20830;SDS011;10576;53.556;9.868;2023-03-13T06:26:30;5.53;;;2.53;;
20830;SDS011;10576;53.556;9.868;2023-03-13T06:28:56;6.45;;;2.25;;
20830;SDS011;10576;53.556;9.868;2023-03-13T06:31:22;7.38;;;2.20;;
20830;SDS011;10576;53.556;9.868;2023-03-13T06:33:51;4.70;;;2.05;;
20830;SDS011;10576;53.556;9.868;2023-03-13T06:36:20;5.75;;;2.05;;
20830;SDS011;10576;53.556;9.868;2023-03-13T06:38:46;3.00;;;1.90;;
20830;SDS011;10576;53.556;9.868;2023-03-13T06:41:15;4.20;;;2.00;;
20830;SDS011;10576;53.556;9.868;2023-03-13T06:43:42;4.20;;;2.00;;
20830;SDS011;10576;53.556;9.868;2023-03-13T06:46:08;3.63;;;2.08;;
20830;SDS011;10576;53.556;9.868;2023-03-13T06:48:44;5.78;;;2.20;;
20830;SDS011;10576;53.556;9.868;2023-03-13T06:51:14;5.88;;;2.17;;
20830;SDS011;10576;53.556;9.868;2023-03-13T06:53:41;7.95;;;2.38;;
20830;SDS011;10576;53.556;9.868;2023-03-13T06:56:08;6.13;;;2.33;;
20830;SDS011;10576;53.556;9.868;2023-03-13T06:58:35;4.18;;;2.00;;
20830;SDS011;10576;53.556;9.868;2023-03-13T07:01:11;4.10;;;2.28;;
20830;SDS011;10576;53.556;9.868;2023-03-13T07:03:38;4.05;;;2.40;;
20830;SDS011;10576;53.556;9.868;2023-03-13T07:06:08;5.35;;;2.67;;
20830;SDS011;10576;53.556;9.868;2023-03-13T07:08:35;4.43;;;3.40;;
20830;SDS011;10576;53.556;9.868;2023-03-13T07:11:02;5.68;;;2.63;;
20830;SDS011;10576;53.556;9.868;2023-03-13T07:13:30;4.45;;;2.70;;
20830;SDS011;10576;53.556;9.868;2023-03-13T07:16:00;4.88;;;2.50;;
20830;SDS011;10576;53.556;9.868;2023-03-13T07:18:28;5.15;;;2.80;;
20830;SDS011;10576;53.556;9.868;2023-03-13T07:20:55;4.97;;;2.80;;
20830;SDS011;10576;53.556;9.868;2023-03-13T07:23:22;7.10;;;2.80;;
20830;SDS011;10576;53.556;9.868;2023-03-13T07:26:32;3.75;;;2.50;;
20830;SDS011;10576;53.556;9.868;2023-03-13T07:28:39;6.60;;;3.60;;
20830;SDS011;10576;53.556;9.868;2023-03-13T07:31:12;8.98;;;3.33;;
20830;SDS011;10576;53.556;9.868;2023-03-13T07:33:39;6.43;;;2.85;;
20830;SDS011;10576;53.556;9.868;2023-03-13T07:36:05;5.00;;;2.90;;
20830;SDS011;10576;53.556;9.868;2023-03-13T07:38:31;5.25;;;2.97;;
20830;SDS011;10576;53.556;9.868;2023-03-13T07:40:57;5.60;;;3.10;;
20830;SDS011;10576;53.556;9.868;2023-03-13T07:43:24;5.60;;;2.90;;
20830;SDS011;10576;53.556;9.868;2023-03-13T07:45:54;4.78;;;3.03;;
20830;SDS011;10576;53.556;9.868;2023-03-13T07:48:21;5.93;;;3.38;;
20830;SDS011;10576;53.556;9.868;2023-03-13T07:50:48;5.60;;;3.23;;
20830;SDS011;10576;53.556;9.868;2023-03-13T07:53:14;5.13;;;3.22;;
20830;SDS011;10576;53.556;9.868;2023-03-13T07:55:54;7.03;;;3.50;;
20830;SDS011;10576;53.556;9.868;2023-03-13T07:58:29;6.60;;;4.38;;
20830;SDS011;10576;53.556;9.868;2023-03-13T08:00:56;5.68;;;4.03;;
20830;SDS011;10576;53.556;9.868;2023-03-13T08:03:23;6.18;;;4.13;;
20830;SDS011;10576;53.556;9.868;2023-03-13T08:05:59;6.32;;;4.30;;
20830;SDS011;10576;53.556;9.868;2023-03-13T08:08:36;4.95;;;4.25;;
20830;SDS011;10576;53.556;9.868;2023-03-13T08:11:04;5.45;;;4.43;;
20830;SDS011;10576;53.556;9.868;2023-03-13T08:13:31;4.78;;;4.05;;
20830;SDS011;10576;53.556;9.868;2023-03-13T08:16:04;7.10;;;5.00;;
20830;SDS011;10576;53.556;9.868;2023-03-13T08:18:30;8.70;;;4.85;;
20830;SDS011;10576;53.556;9.868;2023-03-13T08:21:02;5.38;;;4.45;;
20830;SDS011;10576;53.556;9.868;2023-03-13T08:23:30;5.25;;;4.40;;
20830;SDS011;10576;53.556;9.868;2023-03-13T08:26:00;6.53;;;4.38;;
20830;SDS011;10576;53.556;9.868;2023-03-13T08:28:36;4.70;;;4.15;;
20830;SDS011;10576;53.556;9.868;2023-03-13T08:31:13;5.32;;;4.13;;
20830;SDS011;10576;53.556;9.868;2023-03-13T08:33:44;5.07;;;4.35;;
20830;SDS011;10576;53.556;9.868;2023-03-13T08:36:15;5.30;;;4.15;;
20830;SDS011;10576;53.556;9.868;2023-03-13T08:38:49;5.32;;;4.60;;
20830;SDS011;10576;53.556;9.868;2023-03-13T08:41:20;6.50;;;5.10;;
20830;SDS011;10576;53.556;9.868;2023-03-13T08:43:54;6.70;;;4.90;;
20830;SDS011;10576;53.556;9.868;2023-03-13T08:46:21;5.93;;;4.95;;
20830;SDS011;10576;53.556;9.868;2023-03-13T08:48:48;6.28;;;5.20;;
20830;SDS011;10576;53.556;9.868;2023-03-13T08:51:15;5.97;;;5.47;;
20830;SDS011;10576;53.556;9.868;2023-03-13T08:53:41;8.45;;;5.45;;
20830;SDS011;10576;53.556;9.868;2023-03-13T08:56:08;6.03;;;5.33;;
20830;SDS011;10576;53.556;9.868;2023-03-13T08:58:35;6.23;;;5.60;;
20830;SDS011;10576;53.556;9.868;2023-03-13T09:01:02;7.65;;;5.85;;
20830;SDS011;10576;53.556;9.868;2023-03-13T09:03:30;8.03;;;5.60;;
20830;SDS011;10576;53.556;9.868;2023-03-13T09:05:56;8.63;;;5.60;;
20830;SDS011;10576;53.556;9.868;2023-03-13T09:08:23;6.55;;;5.80;;
20830;SDS011;10576;53.556;9.868;2023-03-13T09:10:55;7.15;;;6.20;;
20830;SDS011;10576;53.556;9.868;2023-03-13T09:13:22;7.70;;;5.90;;
20830;SDS011;10576;53.556;9.868;2023-03-13T09:16:00;8.98;;;6.25;;
20830;SDS011;10576;53.556;9.868;2023-03-13T09:18:30;8.82;;;6.60;;
20830;SDS011;10576;53.556;9.868;2023-03-13T09:20:56;7.68;;;6.20;;
20830;SDS011;10576;53.556;9.868;2023-03-13T09:23:22;8.20;;;5.75;;
20830;SDS011;10576;53.556;9.868;2023-03-13T09:25:48;8.00;;;6.10;;
20830;SDS011;10576;53.556;9.868;2023-03-13T09:28:17;9.07;;;6.33;;
20830;SDS011;10576;53.556;9.868;2023-03-13T09:30:42;8.68;;;6.22;;
20830;SDS011;10576;53.556;9.868;2023-03-13T09:33:08;9.43;;;6.25;;
20830;SDS011;10576;53.556;9.868;2023-03-13T09:35:36;6.70;;;6.00;;
20830;SDS011;10576;53.556;9.868;2023-03-13T09:38:03;8.57;;;6.40;;
20830;SDS011;10576;53.556;9.868;2023-03-13T09:40:29;8.75;;;6.10;;
20830;SDS011;10576;53.556;9.868;2023-03-13T09:42:57;6.95;;;6.20;;
20830;SDS011;10576;53.556;9.868;2023-03-13T09:45:34;7.82;;;6.55;;
20830;SDS011;10576;53.556;9.868;2023-03-13T09:50:28;10.90;;;6.53;;
20830;SDS011;10576;53.556;9.868;2023-03-13T09:53:05;7.38;;;6.45;;
20830;SDS011;10576;53.556;9.868;2023-03-13T09:55:50;8.55;;;6.45;;
20830;SDS011;10576;53.556;9.868;2023-03-13T09:58:18;8.80;;;6.20;;
20830;SDS011;10576;53.556;9.868;2023-03-13T10:00:47;9.07;;;6.55;;
20830;SDS011;10576;53.556;9.868;2023-03-13T10:05:52;8.98;;;6.72;;
20830;SDS011;10576;53.556;9.868;2023-03-13T10:08:45;7.25;;;6.45;;
20830;SDS011;10576;53.556;9.868;2023-03-13T10:11:11;8.77;;;6.63;;
20830;SDS011;10576;53.556;9.868;2023-03-13T10:13:51;7.67;;;6.20;;
20830;SDS011;10576;53.556;9.868;2023-03-13T10:16:33;8.10;;;6.70;;
20830;SDS011;10576;53.556;9.868;2023-03-13T10:19:50;9.32;;;6.10;;
20830;SDS011;10576;53.556;9.868;2023-03-13T10:21:55;7.85;;;6.13;;
20830;SDS011;10576;53.556;9.868;2023-03-13T10:24:30;7.90;;;5.80;;
20830;SDS011;10576;53.556;9.868;2023-03-13T10:27:00;9.35;;;5.60;;
20830;SDS011;10576;53.556;9.868;2023-03-13T10:29:27;9.70;;;5.88;;
20830;SDS011;10576;53.556;9.868;2023-03-13T10:31:58;8.50;;;5.70;;
20830;SDS011;10576;53.556;9.868;2023-03-13T10:34:26;6.22;;;5.28;;
20830;SDS011;10576;53.556;9.868;2023-03-13T10:36:56;7.57;;;5.60;;
20830;SDS011;10576;53.556;9.868;2023-03-13T10:39:25;6.18;;;4.85;;
20830;SDS011;10576;53.556;9.868;2023-03-13T10:41:57;6.38;;;5.18;;
20830;SDS011;10576;53.556;9.868;2023-03-13T10:44:43;5.60;;;5.10;;
20830;SDS011;10576;53.556;9.868;2023-03-13T10:47:11;5.72;;;5.03;;
20830;SDS011;10576;53.556;9.868;2023-03-13T10:49:48;6.68;;;4.72;;
20830;SDS011;10576;53.556;9.868;2023-03-13T10:55:20;6.80;;;4.82;;
20830;SDS011;10576;53.556;9.868;2023-03-13T11:00:36;6.90;;;4.43;;
20830;SDS011;10576;53.556;9.868;2023-03-13T11:03:16;6.28;;;4.40;;
20830;SDS011;10576;53.556;9.868;2023-03-13T11:05:44;6.60;;;4.53;;
20830;SDS011;10576;53.556;9.868;2023-03-13T11:08:19;5.40;;;4.53;;
20830;SDS011;10576;53.556;9.868;2023-03-13T11:10:53;5.95;;;4.40;;
20830;SDS011;10576;53.556;9.868;2023-03-13T11:13:32;6.50;;;4.35;;
20830;SDS011;10576;53.556;9.868;2023-03-13T11:16:05;4.30;;;3.90;;
20830;SDS011;10576;53.556;9.868;2023-03-13T11:24:19;7.50;;;3.35;;
20830;SDS011;10576;53.556;9.868;2023-03-13T11:30:20;5.47;;;2.80;;
20830;SDS011;10576;53.556;9.868;2023-03-13T11:32:47;5.18;;;2.90;;
20830;SDS011;10576;53.556;9.868;2023-03-13T11:35:58;6.32;;;2.70;;
20830;SDS011;10576;53.556;9.868;2023-03-13T11:38:33;3.42;;;2.40;;
20830;SDS011;10576;53.556;9.868;2023-03-13T11:41:36;3.45;;;2.00;;
20830;SDS011;10576;53.556;9.868;2023-03-13T11:44:21;2.72;;;2.03;;
20830;SDS011;10576;53.556;9.868;2023-03-13T11:50:43;2.67;;;2.00;;
20830;SDS011;10576;53.556;9.868;2023-03-13T11:53:07;4.00;;;2.00;;
20830;SDS011;10576;53.556;9.868;2023-03-13T11:58:21;3.70;;;2.10;;
20830;SDS011;10576;53.556;9.868;2023-03-13T12:01:04;5.10;;;2.20;;
20830;SDS011;10576;53.556;9.868;2023-03-13T12:06:16;2.30;;;2.10;;
20830;SDS011;10576;53.556;9.868;2023-03-13T12:09:18;2.47;;;2.28;;
20830;SDS011;10576;53.556;9.868;2023-03-13T12:14:42;3.35;;;2.33;;
20830;SDS011;10576;53.556;9.868;2023-03-13T12:17:21;4.20;;;2.15;;
20830;SDS011;10576;53.556;9.868;2023-03-13T12:20:00;2.97;;;2.00;;
20830;SDS011;10576;53.556;9.868;2023-03-13T12:25:23;2.88;;;2.33;;
20830;SDS011;10576;53.556;9.868;2023-03-13T12:27:54;3.58;;;2.10;;
20830;SDS011;10576;53.556;9.868;2023-03-13T12:30:42;3.13;;;2.03;;
20830;SDS011;10576;53.556;9.868;2023-03-13T12:33:18;4.38;;;2.33;;
20830;SDS011;10576;53.556;9.868;2023-03-13T12:36:01;4.05;;;2.20;;
20830;SDS011;10576;53.556;9.868;2023-03-13T12:38:30;4.50;;;2.25;;
20830;SDS011;10576;53.556;9.868;2023-03-13T12:44:11;4.37;;;2.40;;
20830;SDS011;10576;53.556;9.868;2023-03-13T12:55:07;4.28;;;2.10;;
20830;SDS011;10576;53.556;9.868;2023-03-13T13:00:45;5.15;;;1.85;;
20830;SDS011;10576;53.556;9.868;2023-03-13T13:14:04;3.28;;;1.98;;
20830;SDS011;10576;53.556;9.868;2023-03-13T13:24:55;2.63;;;1.60;;
20830;SDS011;10576;53.556;9.868;2023-03-13T13:29:57;5.05;;;1.90;;
20830;SDS011;10576;53.556;9.868;2023-03-13T13:32:28;2.55;;;1.52;;
20830;SDS011;10576;53.556;9.868;2023-03-13T13:34:59;4.80;;;2.00;;
20830;SDS011;10576;53.556;9.868;2023-03-13T13:37:30;4.40;;;1.85;;
20830;SDS011;10576;53.556;9.868;2023-03-13T13:42:52;2.92;;;1.55;;
20830;SDS011;10576;53.556;9.868;2023-03-13T13:45:26;2.97;;;1.83;;
20830;SDS011;10576;53.556;9.868;2023-03-13T14:04:35;2.30;;;1.70;;
20830;SDS011;10576;53.556;9.868;2023-03-13T14:07:09;3.20;;;1.63;;
20830;SDS011;10576;53.556;9.868;2023-03-13T14:12:36;3.92;;;1.73;;
20830;SDS011;10576;53.556;9.868;2023-03-13T14:17:36;2.90;;;1.70;;
20830;SDS011;10576;53.556;9.868;2023-03-13T14:20:02;2.47;;;1.70;;
20830;SDS011;10576;53.556;9.868;2023-03-13T14:22:43;3.28;;;1.60;;
20830;SDS011;10576;53.556;9.868;2023-03-13T14:25:10;4.93;;;1.80;;
20830;SDS011;10576;53.556;9.868;2023-03-13T14:27:41;2.50;;;1.70;;
20830;SDS011;10576;53.556;9.868;2023-03-13T14:30:08;3.70;;;1.80;;
20830;SDS011;10576;53.556;9.868;2023-03-13T14:32:34;3.35;;;1.52;;
20830;SDS011;10576;53.556;9.868;2023-03-13T14:35:00;3.75;;;1.80;;
20830;SDS011;10576;53.556;9.868;2023-03-13T14:37:42;5.07;;;1.70;;
20830;SDS011;10576;53.556;9.868;2023-03-13T14:40:19;5.45;;;1.73;;
20830;SDS011;10576;53.556;9.868;2023-03-13T14:42:46;2.50;;;1.50;;
20830;SDS011;10576;53.556;9.868;2023-03-13T14:45:14;3.88;;;1.77;;
20830;SDS011;10576;53.556;9.868;2023-03-13T14:47:45;3.95;;;1.85;;
20830;SDS011;10576;53.556;9.868;2023-03-13T14:50:11;4.97;;;1.80;;
20830;SDS011;10576;53.556;9.868;2023-03-13T14:52:48;3.50;;;1.50;;
20830;SDS011;10576;53.556;9.868;2023-03-13T15:00:45;2.80;;;1.60;;
20830;SDS011;10576;53.556;9.868;2023-03-13T15:08:20;3.90;;;1.45;;
20830;SDS011;10576;53.556;9.868;2023-03-13T15:10:47;4.93;;;1.60;;
20830;SDS011;10576;53.556;9.868;2023-03-13T15:15:58;2.90;;;1.52;;
20830;SDS011;10576;53.556;9.868;2023-03-13T15:18:25;2.53;;;1.50;;
20830;SDS011;10576;53.556;9.868;2023-03-13T15:20:54;3.05;;;1.52;;
20830;SDS011;10576;53.556;9.868;2023-03-13T15:23:21;2.17;;;1.67;;
20830;SDS011;10576;53.556;9.868;2023-03-13T15:25:48;3.00;;;1.60;;
20830;SDS011;10576;53.556;9.868;2023-03-13T15:28:15;1.77;;;1.50;;
20830;SDS011;10576;53.556;9.868;2023-03-13T15:30:48;3.80;;;1.60;;
20830;SDS011;10576;53.556;9.868;2023-03-13T15:33:16;3.05;;;1.45;;
20830;SDS011;10576;53.556;9.868;2023-03-13T15:35:43;3.00;;;1.70;;
20830;SDS011;10576;53.556;9.868;2023-03-13T15:38:11;3.10;;;1.60;;
20830;SDS011;10576;53.556;9.868;2023-03-13T15:40:41;1.80;;;1.60;;
20830;SDS011;10576;53.556;9.868;2023-03-13T15:43:08;2.60;;;1.70;;
20830;SDS011;10576;53.556;9.868;2023-03-13T15:45:37;3.40;;;1.70;;
20830;SDS011;10576;53.556;9.868;2023-03-13T15:50:41;2.55;;;1.50;;
20830;SDS011;10576;53.556;9.868;2023-03-13T15:53:18;3.80;;;1.70;;
20830;SDS011;10576;53.556;9.868;2023-03-13T15:55:52;3.95;;;1.50;;
20830;SDS011;10576;53.556;9.868;2023-03-13T15:58:19;2.22;;;1.60;;
20830;SDS011;10576;53.556;9.868;2023-03-13T16:00:45;3.03;;;1.77;;
20830;SDS011;10576;53.556;9.868;2023-03-13T16:03:19;2.45;;;1.60;;
20830;SDS011;10576;53.556;9.868;2023-03-13T16:05:48;3.13;;;1.55;;
20830;SDS011;10576;53.556;9.868;2023-03-13T16:08:15;2.90;;;1.48;;
20830;SDS011;10576;53.556;9.868;2023-03-13T16:10:46;1.52;;;1.40;;
20830;SDS011;10576;53.556;9.868;2023-03-13T16:13:12;2.33;;;1.60;;
20830;SDS011;10576;53.556;9.868;2023-03-13T16:15:38;2.67;;;1.60;;
20830;SDS011;10576;53.556;9.868;2023-03-13T16:18:04;2.47;;;1.60;;
20830;SDS011;10576;53.556;9.868;2023-03-13T16:20:31;2.90;;;1.40;;
20830;SDS011;10576;53.556;9.868;2023-03-13T16:22:58;1.70;;;1.40;;
20830;SDS011;10576;53.556;9.868;2023-03-13T16:25:28;2.05;;;1.40;;
20830;SDS011;10576;53.556;9.868;2023-03-13T16:27:55;2.45;;;1.65;;
20830;SDS011;10576;53.556;9.868;2023-03-13T16:30:24;3.83;;;1.55;;
20830;SDS011;10576;53.556;9.868;2023-03-13T16:32:52;2.30;;;1.40;;
20830;SDS011;10576;53.556;9.868;2023-03-13T16:35:18;4.00;;;1.55;;
20830;SDS011;10576;53.556;9.868;2023-03-13T16:37:44;2.25;;;1.30;;
20830;SDS011;10576;53.556;9.868;2023-03-13T16:40:14;2.40;;;1.75;;
20830;SDS011;10576;53.556;9.868;2023-03-13T16:42:41;3.15;;;1.80;;
20830;SDS011;10576;53.556;9.868;2023-03-13T16:45:08;1.73;;;1.30;;
20830;SDS011;10576;53.556;9.868;2023-03-13T16:47:34;3.67;;;1.65;;
20830;SDS011;10576;53.556;9.868;2023-03-13T16:50:11;2.97;;;1.60;;
20830;SDS011;10576;53.556;9.868;2023-03-13T16:52:49;4.38;;;1.80;;
20830;SDS011;10576;53.556;9.868;2023-03-13T16:55:15;3.08;;;1.58;;
20830;SDS011;10576;53.556;9.868;2023-03-13T16:57:41;2.93;;;1.70;;